createdAt,value
2024-01-24T00:00:57.182Z,25.10
2024-01-24T00:03:24.126Z,23.50
2024-01-24T00:05:51.220Z,24.30
2024-01-24T00:08:17.659Z,22.40
2024-01-24T00:10:43.923Z,21.50
2024-01-24T00:13:10.304Z,23.40
2024-01-24T00:15:38.578Z,23.80
2024-01-24T00:18:05.186Z,20.10
2024-01-24T00:20:31.534Z,21.90
2024-01-24T00:22:58.057Z,24.40
2024-01-24T00:25:24.658Z,21.90
2024-01-24T00:27:51.004Z,24.00
2024-01-24T00:30:17.394Z,25.30
2024-01-24T00:32:43.905Z,23.10
2024-01-24T00:35:10.333Z,22.20
2024-01-24T00:37:36.773Z,23.80
2024-01-24T00:40:03.891Z,22.80
2024-01-24T00:42:30.474Z,20.70
2024-01-24T00:44:56.843Z,22.60
2024-01-24T00:47:23.313Z,21.50
2024-01-24T00:49:49.659Z,22.50
2024-01-24T00:52:15.935Z,24.10
2024-01-24T00:54:42.423Z,26.40
2024-01-24T00:57:08.829Z,25.00
2024-01-24T00:59:35.285Z,25.70
2024-01-24T01:02:01.545Z,26.10
2024-01-24T01:04:28.118Z,26.80
2024-01-24T01:06:54.477Z,25.70
2024-01-24T01:09:20.854Z,25.10
2024-01-24T01:11:47.181Z,25.00
2024-01-24T01:14:13.893Z,27.70
2024-01-24T01:16:41.443Z,26.40
2024-01-24T01:19:08.154Z,26.40
2024-01-24T01:21:35.306Z,25.30
2024-01-24T01:24:01.956Z,23.70
2024-01-24T01:26:28.509Z,24.10
2024-01-24T01:28:55.114Z,24.10
2024-01-24T01:31:21.367Z,25.40
2024-01-24T01:33:47.904Z,25.50
2024-01-24T01:36:22.608Z,24.60
2024-01-24T01:38:50.391Z,23.30
2024-01-24T01:41:17.532Z,23.50
2024-01-24T01:43:44.599Z,23.10
2024-01-24T01:46:14.704Z,24.10
2024-01-24T01:48:41.235Z,24.10
2024-01-24T01:51:07.589Z,24.20
2024-01-24T01:53:38.828Z,25.50
2024-01-24T01:56:09.699Z,24.20
2024-01-24T01:58:37.224Z,23.90
2024-01-24T02:01:05.211Z,25.00
2024-01-24T02:03:34.373Z,26.50
2024-01-24T02:06:01.099Z,22.00
2024-01-24T02:08:27.734Z,23.30
2024-01-24T02:10:55.407Z,26.10
2024-01-24T02:13:21.815Z,25.60
2024-01-24T02:15:49.136Z,24.00
2024-01-24T02:18:15.649Z,27.50
2024-01-24T02:20:42.306Z,25.30
2024-01-24T02:23:10.127Z,26.40
2024-01-24T02:25:36.387Z,24.80
2024-01-24T02:28:03.016Z,24.50
2024-01-24T02:30:29.486Z,26.00
2024-01-24T02:32:57.004Z,25.20
2024-01-24T02:35:25.144Z,27.00
2024-01-24T02:37:51.534Z,27.30
2024-01-24T02:40:17.948Z,27.40
2024-01-24T02:42:44.276Z,24.80
2024-01-24T02:45:10.722Z,26.10
2024-01-24T02:47:37.676Z,25.10
2024-01-24T02:50:04.932Z,27.90
2024-01-24T02:52:31.552Z,25.70
2024-01-24T02:54:57.882Z,24.90
2024-01-24T02:57:24.166Z,27.50
2024-01-24T02:59:50.596Z,27.90
2024-01-24T03:02:17.027Z,27.50
2024-01-24T03:04:43.450Z,26.30
2024-01-24T03:07:10.029Z,28.00
2024-01-24T03:09:36.684Z,28.80
2024-01-24T03:12:03.341Z,30.40
2024-01-24T03:14:30.036Z,28.50
2024-01-24T03:16:56.827Z,28.10
2024-01-24T03:19:23.556Z,30.70
2024-01-24T03:21:50.099Z,29.10
2024-01-24T03:24:16.688Z,28.10
2024-01-24T03:26:43.240Z,28.90
2024-01-24T03:29:09.634Z,28.40
2024-01-24T03:31:35.916Z,30.90
2024-01-24T03:34:02.527Z,30.50
2024-01-24T03:36:29.332Z,30.10
2024-01-24T03:38:56.181Z,29.50
2024-01-24T03:41:22.466Z,28.00
2024-01-24T03:43:48.918Z,29.80
2024-01-24T03:46:19.057Z,30.20
2024-01-24T03:48:45.534Z,30.30
2024-01-24T03:51:12.309Z,29.90
2024-01-24T03:53:38.682Z,31.20
2024-01-24T03:56:06.473Z,30.50
2024-01-24T03:58:32.973Z,30.40
2024-01-24T04:00:59.420Z,31.30
2024-01-24T04:03:26.081Z,31.20
2024-01-24T04:05:52.483Z,29.30
2024-01-24T04:08:18.809Z,32.00
2024-01-24T04:10:45.187Z,31.30
2024-01-24T04:13:11.501Z,30.80
2024-01-24T04:15:39.909Z,32.90
2024-01-24T04:18:07.477Z,32.50
2024-01-24T04:20:33.886Z,31.90
2024-01-24T04:23:00.501Z,29.10
2024-01-24T04:25:26.900Z,30.90
2024-01-24T04:27:53.359Z,35.90
2024-01-24T04:30:19.908Z,35.40
2024-01-24T04:32:46.384Z,40.60
2024-01-24T04:35:12.908Z,35.90
2024-01-24T04:37:39.280Z,31.30
2024-01-24T04:40:07.148Z,30.60
2024-01-24T04:42:33.743Z,28.80
2024-01-24T04:45:00.225Z,30.00
2024-01-24T04:47:26.668Z,34.60
2024-01-24T04:49:53.315Z,31.40
2024-01-24T04:52:19.677Z,32.60
2024-01-24T04:54:46.298Z,28.40
2024-01-24T04:57:12.836Z,30.10
2024-01-24T04:59:46.595Z,31.00
2024-01-24T05:02:20.204Z,28.50
2024-01-24T05:04:47.893Z,27.50
2024-01-24T05:07:14.370Z,29.00
2024-01-24T05:09:41.116Z,29.00
2024-01-24T05:12:07.543Z,29.70
2024-01-24T05:14:34.196Z,27.90
2024-01-24T05:17:03.887Z,28.40
2024-01-24T05:19:30.473Z,29.10
2024-01-24T05:21:57.297Z,27.10
2024-01-24T05:24:23.826Z,28.10
2024-01-24T05:26:50.186Z,31.00
2024-01-24T05:29:16.515Z,28.70
2024-01-24T05:31:43.363Z,26.30
2024-01-24T05:34:09.998Z,27.30
2024-01-24T05:36:36.564Z,28.10
2024-01-24T05:39:07.049Z,26.00
2024-01-24T05:41:34.222Z,24.90
2024-01-24T05:44:00.551Z,24.90
2024-01-24T05:46:26.812Z,26.10
2024-01-24T05:48:53.288Z,27.50
2024-01-24T05:51:19.698Z,25.80
2024-01-24T05:53:46.089Z,26.60
2024-01-24T05:56:12.519Z,26.30
2024-01-24T05:58:38.993Z,25.10
2024-01-24T06:01:08.091Z,27.20
2024-01-24T06:03:35.060Z,25.60
2024-01-24T06:06:01.917Z,26.20
2024-01-24T06:08:30.036Z,26.30
2024-01-24T06:10:56.798Z,25.00
2024-01-24T06:13:23.147Z,25.80
2024-01-24T06:15:50.866Z,26.10
2024-01-24T06:18:17.946Z,26.70
2024-01-24T06:20:45.918Z,28.10
2024-01-24T06:23:12.750Z,27.50
2024-01-24T06:25:39.289Z,26.50
2024-01-24T06:28:05.952Z,24.20
2024-01-24T06:30:32.616Z,26.00
2024-01-24T06:32:59.081Z,26.30
2024-01-24T06:35:25.551Z,26.20
2024-01-24T06:37:52.122Z,25.30
2024-01-24T06:40:21.415Z,24.70
2024-01-24T06:42:47.811Z,25.10
2024-01-24T06:45:14.333Z,23.10
2024-01-24T06:47:40.874Z,26.00
2024-01-24T06:50:08.659Z,23.40
2024-01-24T06:52:35.130Z,28.10
2024-01-24T06:55:02.629Z,29.60
2024-01-24T06:57:29.186Z,33.80
2024-01-24T06:59:55.557Z,31.60
2024-01-24T07:02:21.881Z,30.20
2024-01-24T07:04:48.538Z,31.60
2024-01-24T07:07:15.395Z,32.40
2024-01-24T07:09:41.873Z,34.10
2024-01-24T07:12:08.468Z,33.60
2024-01-24T07:14:35.117Z,36.80
2024-01-24T07:17:05.987Z,37.40
2024-01-24T07:19:32.978Z,36.40
2024-01-24T07:22:01.019Z,34.80
2024-01-24T07:24:28.625Z,36.70
2024-01-24T07:26:55.115Z,36.50
2024-01-24T07:29:21.450Z,32.90
2024-01-24T07:31:47.924Z,32.00
2024-01-24T07:34:15.936Z,30.60
2024-01-24T07:36:42.667Z,27.50
2024-01-24T07:39:09.432Z,27.40
2024-01-24T07:41:35.916Z,27.90
2024-01-24T07:44:02.484Z,31.30
2024-01-24T07:46:29.956Z,31.90
2024-01-24T07:48:56.395Z,26.90
2024-01-24T07:51:23.230Z,26.30
2024-01-24T07:53:49.634Z,27.30
2024-01-24T07:56:24.353Z,26.20
2024-01-24T07:58:52.828Z,26.80
2024-01-24T08:01:19.823Z,28.00
2024-01-24T08:03:49.486Z,29.10
2024-01-24T08:06:19.890Z,27.10
2024-01-24T08:08:46.694Z,32.20
2024-01-24T08:11:13.302Z,30.20
2024-01-24T08:13:39.790Z,34.80
2024-01-24T08:16:08.357Z,34.60
2024-01-24T08:18:34.945Z,31.50
2024-01-24T08:21:01.424Z,30.60
2024-01-24T08:23:34.737Z,32.00
2024-01-24T08:26:09.792Z,32.30
2024-01-24T08:28:37.243Z,27.50
2024-01-24T08:31:03.967Z,29.70
2024-01-24T08:33:32.957Z,31.20
2024-01-24T08:35:59.829Z,30.40
2024-01-24T08:38:26.352Z,31.20
2024-01-24T08:40:52.941Z,32.60
2024-01-24T08:43:19.572Z,39.70
2024-01-24T08:45:48.822Z,31.90
2024-01-24T08:48:18.369Z,29.50
2024-01-24T08:50:44.937Z,29.30
2024-01-24T08:53:11.486Z,33.20
2024-01-24T08:55:38.656Z,31.60
2024-01-24T08:58:05.398Z,32.00
2024-01-24T09:00:31.909Z,32.10
2024-01-24T09:02:59.117Z,32.00
2024-01-24T09:05:26.289Z,30.70
2024-01-24T09:07:53.953Z,32.20
2024-01-24T09:10:20.458Z,33.30
2024-01-24T09:12:47.306Z,30.70
2024-01-24T09:15:16.935Z,31.20
2024-01-24T09:17:44.616Z,27.50
2024-01-24T09:20:11.564Z,31.00
2024-01-24T09:22:38.622Z,33.50
2024-01-24T09:25:08.016Z,31.50
2024-01-24T09:27:38.693Z,33.50
2024-01-24T09:30:06.229Z,31.50
2024-01-24T09:32:33.861Z,33.70
2024-01-24T09:35:01.276Z,35.10
2024-01-24T09:37:27.997Z,38.10
2024-01-24T09:39:55.744Z,38.70
2024-01-24T09:42:25.527Z,35.30
2024-01-24T09:44:51.990Z,32.20
2024-01-24T09:47:20.754Z,33.30
2024-01-24T09:49:47.349Z,32.30
2024-01-24T09:52:13.935Z,32.20
2024-01-24T09:54:40.592Z,31.80
2024-01-24T09:57:07.378Z,32.60
2024-01-24T09:59:33.890Z,32.20
2024-01-24T10:02:00.437Z,28.20
2024-01-24T10:04:27.115Z,32.00
2024-01-24T10:06:54.155Z,33.80
2024-01-24T10:09:21.345Z,34.10
2024-01-24T10:11:48.315Z,35.10
2024-01-24T10:14:15.280Z,35.10
2024-01-24T10:16:43.500Z,32.30
2024-01-24T10:19:10.667Z,29.70
2024-01-24T10:21:37.371Z,32.40
2024-01-24T10:24:04.675Z,30.40
2024-01-24T10:26:31.390Z,34.20
2024-01-24T10:28:57.956Z,33.00
2024-01-24T10:31:24.977Z,31.70
2024-01-24T10:33:55.246Z,31.30
2024-01-24T10:36:27.567Z,31.90
2024-01-24T10:39:04.085Z,32.10
2024-01-24T10:41:31.967Z,29.60
2024-01-24T10:44:03.242Z,28.00
2024-01-24T10:46:33.704Z,30.70
2024-01-24T10:49:00.511Z,30.30
2024-01-24T10:51:30.592Z,27.20
2024-01-24T10:53:57.330Z,27.50
2024-01-24T10:56:26.160Z,29.40
2024-01-24T10:58:53.127Z,31.90
2024-01-24T11:01:20.141Z,31.40
2024-01-24T11:03:47.938Z,31.10
2024-01-24T11:06:15.907Z,29.30
2024-01-24T11:08:57.621Z,27.40
2024-01-24T11:11:24.120Z,28.60
2024-01-24T11:13:53.850Z,28.50
2024-01-24T11:16:27.007Z,28.60
2024-01-24T11:18:57.256Z,31.60
2024-01-24T11:21:24.107Z,28.50
2024-01-24T11:23:50.744Z,26.00
2024-01-24T11:26:17.336Z,52.20
2024-01-24T11:28:44.840Z,32.10
2024-01-24T11:31:12.024Z,27.70
2024-01-24T11:34:12.630Z,33.50
2024-01-24T11:36:42.294Z,32.50
2024-01-24T11:39:31.162Z,29.40
2024-01-24T11:42:32.678Z,30.50
2024-01-24T11:45:17.629Z,31.90
2024-01-24T11:47:45.628Z,32.20
2024-01-24T11:50:12.506Z,29.80
2024-01-24T11:52:40.011Z,30.50
2024-01-24T11:55:07.135Z,33.00
2024-01-24T11:57:33.931Z,29.60
2024-01-24T12:00:00.566Z,32.80
2024-01-24T12:02:27.017Z,39.70
2024-01-24T12:04:53.695Z,31.90
2024-01-24T12:07:20.288Z,33.60
2024-01-24T12:09:47.762Z,28.10
2024-01-24T12:12:14.547Z,33.00
2024-01-24T12:14:41.343Z,29.70
2024-01-24T12:17:08.777Z,30.10
2024-01-24T12:19:36.495Z,27.10
2024-01-24T12:22:05.605Z,26.20
2024-01-24T12:24:32.383Z,25.60
2024-01-24T12:27:01.129Z,28.50
2024-01-24T12:29:28.442Z,31.50
2024-01-24T12:31:54.996Z,29.00
2024-01-24T12:34:22.067Z,28.10
2024-01-24T12:36:48.842Z,25.30
2024-01-24T12:39:15.723Z,23.40
2024-01-24T12:41:42.879Z,24.50
2024-01-24T12:44:09.823Z,24.20
2024-01-24T12:46:40.649Z,21.60
2024-01-24T12:49:07.272Z,21.80
2024-01-24T12:51:37.462Z,22.50
2024-01-24T12:54:05.228Z,19.80
2024-01-24T12:56:31.873Z,21.60
2024-01-24T12:58:58.446Z,19.60
2024-01-24T13:01:25.089Z,20.50
2024-01-24T13:03:51.740Z,21.40
2024-01-24T13:06:18.344Z,22.90
2024-01-24T13:08:44.849Z,21.30
2024-01-24T13:11:11.332Z,22.80
2024-01-24T13:13:38.398Z,20.00
2024-01-24T13:16:07.151Z,18.00
2024-01-24T13:18:34.035Z,16.40
2024-01-24T13:21:00.617Z,19.30
2024-01-24T13:23:27.019Z,17.60
2024-01-24T13:25:53.469Z,19.10
2024-01-24T13:28:21.161Z,24.20
2024-01-24T13:30:50.515Z,24.00
2024-01-24T13:33:17.512Z,20.10
2024-01-24T13:35:43.977Z,18.20
2024-01-24T13:38:10.880Z,21.80
2024-01-24T13:40:38.473Z,22.00
2024-01-24T13:43:06.112Z,21.00
2024-01-24T13:45:33.361Z,24.50
2024-01-24T13:47:59.946Z,20.30
2024-01-24T13:50:26.652Z,21.50
2024-01-24T13:52:53.255Z,22.00
2024-01-24T13:55:19.912Z,25.90
2024-01-24T13:57:46.538Z,25.90
2024-01-24T14:00:14.202Z,23.00
2024-01-24T14:02:42.060Z,26.00
2024-01-24T14:05:09.940Z,27.70
2024-01-24T14:07:39.141Z,27.10
2024-01-24T14:10:06.460Z,27.10
2024-01-24T14:12:33.247Z,25.00
2024-01-24T14:15:03.383Z,27.00
2024-01-24T14:17:37.442Z,27.50
2024-01-24T14:20:04.730Z,28.50
2024-01-24T14:22:31.588Z,28.30
2024-01-24T14:24:58.874Z,26.70
2024-01-24T14:27:26.782Z,23.70
2024-01-24T14:29:54.863Z,27.00
2024-01-24T14:32:21.340Z,25.90
2024-01-24T14:34:47.855Z,28.00
2024-01-24T14:37:14.470Z,25.70
2024-01-24T14:39:41.080Z,26.70
2024-01-24T14:42:08.360Z,24.70
2024-01-24T14:44:35.207Z,25.20
2024-01-24T14:47:01.823Z,26.30
2024-01-24T14:49:28.538Z,26.50
2024-01-24T14:51:55.134Z,25.90
2024-01-24T14:54:21.721Z,25.90
2024-01-24T14:56:48.750Z,25.40
2024-01-24T14:59:17.073Z,25.90
2024-01-24T15:01:43.746Z,27.40
2024-01-24T15:04:10.687Z,32.00
2024-01-24T15:06:37.366Z,29.50
2024-01-24T15:09:07.601Z,29.50
2024-01-24T15:11:35.282Z,30.20
2024-01-24T15:14:01.752Z,29.10
2024-01-24T15:16:30.124Z,28.00
2024-01-24T15:18:57.392Z,28.70
2024-01-24T15:21:23.935Z,27.20
2024-01-24T15:23:51.049Z,29.20
2024-01-24T15:26:18.123Z,24.30
2024-01-24T15:28:44.630Z,24.20
2024-01-24T15:31:11.552Z,26.10
2024-01-24T15:33:38.422Z,30.30
2024-01-24T15:36:05.172Z,30.00
2024-01-24T15:38:31.826Z,29.60
2024-01-24T15:40:58.476Z,29.60
2024-01-24T15:43:26.489Z,31.30
2024-01-24T15:45:53.565Z,27.40
2024-01-24T15:48:20.147Z,28.30
2024-01-24T15:50:47.231Z,28.80
2024-01-24T15:53:13.843Z,26.60
2024-01-24T15:55:40.339Z,26.10
2024-01-24T15:58:06.858Z,28.40
2024-01-24T16:00:33.778Z,26.40
2024-01-24T16:03:00.703Z,26.90
2024-01-24T16:05:33.942Z,29.00
2024-01-24T16:08:03.319Z,28.70
2024-01-24T16:10:30.123Z,29.70
2024-01-24T16:12:56.939Z,28.50
2024-01-24T16:15:25.011Z,29.70
2024-01-24T16:17:51.712Z,31.70
2024-01-24T16:20:18.240Z,31.20
2024-01-24T16:22:51.037Z,29.40
2024-01-24T16:25:23.474Z,31.00
2024-01-24T16:27:50.347Z,29.80
2024-01-24T16:30:17.830Z,29.00
2024-01-24T16:32:45.361Z,31.00
2024-01-24T16:35:14.538Z,30.50
2024-01-24T16:37:41.229Z,30.20
2024-01-24T16:40:08.676Z,30.50
2024-01-24T16:42:35.356Z,28.30
2024-01-24T16:45:02.841Z,30.90
2024-01-24T16:47:29.680Z,29.30
2024-01-24T16:49:56.542Z,30.00
2024-01-24T16:52:23.538Z,30.80
2024-01-24T16:54:50.449Z,33.30
2024-01-24T16:57:17.049Z,31.40
2024-01-24T16:59:43.501Z,32.00
2024-01-24T17:02:11.467Z,30.60
2024-01-24T17:04:38.769Z,31.20
2024-01-24T17:07:05.322Z,27.80
2024-01-24T17:09:32.589Z,30.70
2024-01-24T17:11:59.043Z,28.00
2024-01-24T17:14:25.556Z,32.10
2024-01-24T17:16:53.284Z,31.10
2024-01-24T17:19:21.090Z,30.20
2024-01-24T17:21:47.701Z,30.80
2024-01-24T17:24:14.161Z,33.60
2024-01-24T17:26:40.827Z,33.90
2024-01-24T17:29:07.650Z,31.80
2024-01-24T17:31:35.928Z,30.80
2024-01-24T17:34:02.613Z,32.30
2024-01-24T17:36:29.394Z,31.00
2024-01-24T17:38:56.175Z,30.30
2024-01-24T17:41:23.684Z,26.30
2024-01-24T17:43:50.308Z,27.50
2024-01-24T17:46:16.990Z,31.30
2024-01-24T17:48:45.167Z,27.80
2024-01-24T17:51:14.621Z,27.50
2024-01-24T17:53:41.769Z,29.60
2024-01-24T17:56:08.264Z,30.40
2024-01-24T17:58:35.611Z,24.80
2024-01-24T18:01:04.362Z,26.60
2024-01-24T18:03:31.220Z,25.20
2024-01-24T18:05:57.773Z,27.40
2024-01-24T18:08:25.706Z,28.10
2024-01-24T18:10:52.602Z,25.80
2024-01-24T18:13:19.121Z,26.90
2024-01-24T18:15:46.088Z,26.90
2024-01-24T18:18:12.829Z,27.80
2024-01-24T18:20:39.792Z,29.90
2024-01-24T18:23:06.159Z,28.30
2024-01-24T18:25:32.553Z,30.20
2024-01-24T18:27:59.179Z,22.80
2024-01-24T18:30:25.823Z,28.70
2024-01-24T18:32:52.381Z,29.90
2024-01-24T18:35:18.967Z,29.10
2024-01-24T18:37:45.451Z,30.60
2024-01-24T18:40:12.415Z,27.70
2024-01-24T18:42:42.013Z,29.60
2024-01-24T18:45:13.126Z,29.10
2024-01-24T18:47:40.089Z,31.90
2024-01-24T18:50:08.384Z,30.40
2024-01-24T18:52:35.962Z,30.30
2024-01-24T18:55:02.779Z,27.50
2024-01-24T18:57:29.783Z,26.90
2024-01-24T18:59:56.463Z,28.90
2024-01-24T19:02:23.219Z,28.10
2024-01-24T19:04:49.938Z,24.50
2024-01-24T19:07:17.696Z,26.00
2024-01-24T19:09:45.337Z,24.80
2024-01-24T19:12:11.883Z,26.50
2024-01-24T19:14:40.649Z,26.70
2024-01-24T19:17:09.167Z,28.20
2024-01-24T19:19:36.010Z,28.10
2024-01-24T19:22:03.061Z,25.40
2024-01-24T19:24:29.816Z,25.20
2024-01-24T19:26:56.488Z,26.30
2024-01-24T19:29:23.357Z,24.00
2024-01-24T19:31:51.344Z,25.90
2024-01-24T19:34:19.568Z,26.20
2024-01-24T19:36:46.173Z,25.90
2024-01-24T19:39:14.509Z,29.90
2024-01-24T19:41:41.085Z,27.50
2024-01-24T19:44:07.580Z,26.60
2024-01-24T19:46:34.022Z,28.90
2024-01-24T19:49:00.559Z,28.20
2024-01-24T19:51:28.274Z,28.70
2024-01-24T19:53:55.605Z,29.70
2024-01-24T19:56:22.256Z,29.60
2024-01-24T19:58:48.956Z,31.20
2024-01-24T20:01:15.719Z,30.60
2024-01-24T20:03:42.227Z,29.80
2024-01-24T20:06:08.728Z,28.70
2024-01-24T20:08:35.324Z,29.10
2024-01-24T20:11:01.935Z,28.40
2024-01-24T20:13:28.477Z,29.60
2024-01-24T20:15:58.713Z,31.30
2024-01-24T20:18:25.826Z,31.60
2024-01-24T20:20:52.306Z,29.80
2024-01-24T20:23:18.858Z,27.90
2024-01-24T20:25:45.321Z,30.10
2024-01-24T20:28:11.979Z,31.40
2024-01-24T20:30:38.444Z,30.80
2024-01-24T20:33:05.598Z,29.40
2024-01-24T20:35:32.448Z,26.10
2024-01-24T20:37:59.290Z,28.50
2024-01-24T20:40:25.812Z,28.70
2024-01-24T20:42:52.342Z,27.90
2024-01-24T20:45:18.851Z,24.10
2024-01-24T20:47:45.317Z,29.80
2024-01-24T20:50:12.071Z,27.70
2024-01-24T20:52:38.627Z,29.30
2024-01-24T20:55:05.341Z,28.60
2024-01-24T20:57:33.260Z,25.40
2024-01-24T21:00:01.872Z,27.20
2024-01-24T21:02:28.651Z,27.60
2024-01-24T21:04:55.190Z,26.50
2024-01-24T21:07:21.952Z,24.80
2024-01-24T21:09:48.568Z,28.40
2024-01-24T21:12:15.053Z,26.60
2024-01-24T21:14:41.731Z,25.30
2024-01-24T21:17:11.735Z,25.10
2024-01-24T21:19:38.512Z,24.60
2024-01-24T21:22:05.170Z,24.60
2024-01-24T21:24:31.818Z,26.70
2024-01-24T21:26:58.295Z,22.50
2024-01-24T21:29:24.623Z,23.50
2024-01-24T21:31:50.910Z,23.40
2024-01-24T21:34:17.692Z,22.50
2024-01-24T21:36:48.074Z,20.70
2024-01-24T21:39:16.472Z,19.80
2024-01-24T21:41:42.747Z,21.10
2024-01-24T21:44:09.138Z,19.70
2024-01-24T21:46:35.729Z,21.40
2024-01-24T21:49:02.809Z,19.20
2024-01-24T21:51:29.333Z,19.70
2024-01-24T21:53:55.719Z,18.80
2024-01-24T21:56:22.085Z,17.10
2024-01-24T21:58:48.854Z,18.40
2024-01-24T22:01:16.014Z,16.30
2024-01-24T22:03:42.498Z,16.70
2024-01-24T22:06:08.965Z,16.10
2024-01-24T22:08:35.481Z,17.80
2024-01-24T22:11:01.743Z,15.70
2024-01-24T22:13:28.098Z,17.10
2024-01-24T22:15:57.876Z,16.30
2024-01-24T22:18:30.082Z,16.00
2024-01-24T22:21:04.196Z,15.50
2024-01-24T22:23:30.605Z,14.70
2024-01-24T22:25:58.597Z,14.60
2024-01-24T22:28:25.105Z,15.50
2024-01-24T22:30:52.918Z,12.60
2024-01-24T22:33:19.285Z,12.50
2024-01-24T22:35:45.878Z,13.10
2024-01-24T22:38:12.342Z,12.20
2024-01-24T22:40:39.143Z,13.50
2024-01-24T22:43:05.650Z,13.40
2024-01-24T22:45:32.164Z,12.40
2024-01-24T22:48:00.917Z,13.00
2024-01-24T22:50:27.827Z,12.50
2024-01-24T22:52:54.324Z,12.80
2024-01-24T22:55:21.118Z,12.30
2024-01-24T22:57:48.466Z,12.90
2024-01-24T23:00:19.333Z,12.60
2024-01-24T23:02:46.640Z,13.40
2024-01-24T23:05:13.304Z,11.60
2024-01-24T23:07:42.522Z,13.20
2024-01-24T23:10:09.603Z,13.60
2024-01-24T23:12:36.509Z,12.70
2024-01-24T23:15:05.739Z,12.70
2024-01-24T23:17:32.428Z,11.60
2024-01-24T23:19:59.432Z,13.10
2024-01-24T23:22:26.347Z,11.90
2024-01-24T23:24:52.835Z,13.60
2024-01-24T23:27:19.202Z,13.50
2024-01-24T23:29:45.605Z,13.00
2024-01-24T23:32:12.011Z,16.60
2024-01-24T23:34:38.589Z,16.90
2024-01-24T23:37:05.237Z,15.80
2024-01-24T23:39:32.098Z,17.00
2024-01-24T23:41:58.652Z,15.10
2024-01-24T23:44:25.061Z,16.50
2024-01-24T23:46:51.507Z,16.90
2024-01-24T23:49:18.079Z,16.40
2024-01-24T23:51:44.805Z,15.00
2024-01-24T23:54:12.583Z,13.90
2024-01-24T23:56:38.973Z,15.40
2024-01-24T23:59:05.358Z,16.00
